Time;durP1;ratioP1;P1;durP2;ratioP2;P2;SDS_P1;SDS_P2;PMS_P1;PMS_P2;Temp;Humidity;BMP_temperature;BMP_pressure;BME280_temperature;BME280_humidity;BME280_pressure;Samples;Min_cycle;Max_cycle;Signal;HPM_P1;HPM_P2
2021/09/09 00:01:17;;;;;;;16.23;11.75;;;16.90;86.60;;;;;;4992440;28;20034;-64
2021/09/09 00:03:43;;;;;;;14.15;11.05;;;16.80;86.50;;;;;;4990929;28;20520;-64
2021/09/09 00:06:10;;;;;;;15.70;11.55;;;16.90;86.80;;;;;;4991980;28;20433;-64
2021/09/09 00:08:36;;;;;;;15.63;11.60;;;16.90;87.00;;;;;;4991414;28;20133;-64
2021/09/09 00:11:02;;;;;;;16.75;11.95;;;16.80;86.80;;;;;;4993293;28;20588;-64
2021/09/09 00:13:28;;;;;;;15.50;11.00;;;16.80;86.70;;;;;;4991067;28;20026;-64
2021/09/09 00:15:55;;;;;;;16.52;11.57;;;16.80;86.50;;;;;;4987847;28;20065;-64
2021/09/09 00:18:24;;;;;;;15.25;11.45;;;16.90;86.30;;;;;;5006955;28;20119;-64
2021/09/09 00:20:51;;;;;;;15.65;10.60;;;16.90;85.90;;;;;;4991368;28;20042;-64
2021/09/09 00:23:17;;;;;;;17.60;10.82;;;16.90;86.10;;;;;;4994018;28;20029;-64
2021/09/09 00:25:43;;;;;;;13.93;10.75;;;16.90;85.90;;;;;;4991227;28;20030;-64
2021/09/09 00:28:09;;;;;;;14.88;11.05;;;16.90;85.90;;;;;;4991265;28;20514;-64
2021/09/09 00:30:35;;;;;;;15.50;11.27;;;16.90;85.90;;;;;;4991215;28;20042;-64
2021/09/09 00:33:06;;;;;;;15.32;11.52;;;16.90;85.90;;;;;;4992473;28;20042;-64
2021/09/09 00:35:32;;;;;;;20.80;11.80;;;16.80;85.60;;;;;;4994650;28;20062;-64
2021/09/09 00:37:57;;;;;;;14.88;10.63;;;16.80;86.00;;;;;;4992682;28;20038;-65
2021/09/09 00:40:23;;;;;;;16.55;11.23;;;16.90;85.90;;;;;;4996471;28;20030;-64
2021/09/09 00:42:49;;;;;;;16.50;11.77;;;16.80;85.80;;;;;;4995487;28;20462;-64
2021/09/09 00:45:15;;;;;;;15.88;11.95;;;16.80;85.90;;;;;;4993237;28;20500;-64
2021/09/09 00:47:42;;;;;;;15.38;10.52;;;16.80;85.80;;;;;;4996069;28;20153;-64
2021/09/09 00:50:09;;;;;;;17.33;11.25;;;16.80;86.00;;;;;;5008738;28;20133;-64
2021/09/09 00:52:34;;;;;;;13.63;10.85;;;16.70;85.90;;;;;;4995574;28;20045;-64
2021/09/09 00:55:00;;;;;;;13.70;10.75;;;16.70;86.20;;;;;;4997892;28;20033;-64
2021/09/09 00:57:26;;;;;;;15.60;10.57;;;16.70;86.40;;;;;;4995617;28;20079;-64
2021/09/09 00:59:53;;;;;;;18.52;12.05;;;16.60;86.40;;;;;;4990726;28;20110;-64
2021/09/09 01:02:19;;;;;;;16.00;11.55;;;16.60;86.60;;;;;;4990944;28;20764;-64
2021/09/09 01:04:44;;;;;;;20.05;11.88;;;16.60;86.60;;;;;;4991526;28;20033;-64
2021/09/09 01:07:10;;;;;;;18.48;12.48;;;16.60;86.60;;;;;;4991149;28;20030;-64
2021/09/09 01:09:36;;;;;;;16.67;11.95;;;16.60;86.30;;;;;;4988975;28;20763;-64
2021/09/09 01:12:02;;;;;;;14.68;11.77;;;16.60;85.80;;;;;;4989309;28;20038;-64
2021/09/09 01:14:28;;;;;;;16.75;11.60;;;16.60;85.60;;;;;;4990682;28;20045;-65
2021/09/09 01:16:53;;;;;;;17.55;11.73;;;16.60;85.70;;;;;;4991339;28;20045;-64
2021/09/09 01:19:19;;;;;;;17.40;12.35;;;16.60;86.00;;;;;;4993214;28;20041;-65
2021/09/09 01:21:45;;;;;;;17.05;11.63;;;16.60;85.70;;;;;;4994312;28;20540;-65
2021/09/09 01:24:12;;;;;;;18.67;12.10;;;16.60;85.70;;;;;;5007206;28;20052;-64
2021/09/09 01:26:51;;;;;;;19.45;12.38;;;16.60;85.90;;;;;;4991798;28;20022;-65
2021/09/09 01:29:17;;;;;;;20.00;12.90;;;16.60;86.00;;;;;;4992506;28;20042;-63
2021/09/09 01:31:43;;;;;;;16.05;11.65;;;16.50;85.90;;;;;;4991784;28;20077;-64
2021/09/09 01:34:09;;;;;;;17.95;13.05;;;16.40;86.00;;;;;;4993129;28;20108;-64
2021/09/09 01:36:34;;;;;;;15.68;11.65;;;16.40;86.40;;;;;;4993214;28;20061;-64
2021/09/09 01:39:00;;;;;;;15.65;11.45;;;16.40;86.50;;;;;;4989766;28;20141;-64
2021/09/09 01:41:26;;;;;;;15.93;12.35;;;16.30;86.60;;;;;;5006633;28;20050;-64
2021/09/09 01:43:51;;;;;;;16.75;12.52;;;16.30;87.10;;;;;;4990798;28;20049;-64
2021/09/09 01:46:17;;;;;;;16.27;12.10;;;16.30;87.10;;;;;;4989510;28;20026;-65
2021/09/09 01:48:43;;;;;;;14.30;10.68;;;16.20;87.00;;;;;;4993532;28;20030;-64
2021/09/09 01:51:08;;;;;;;14.18;12.05;;;16.20;87.10;;;;;;4991062;28;20109;-64
2021/09/09 01:53:34;;;;;;;16.45;12.20;;;16.20;87.10;;;;;;4990812;28;20034;-65
2021/09/09 01:56:00;;;;;;;15.77;11.68;;;16.20;87.10;;;;;;4991664;28;20038;-64
2021/09/09 01:58:25;;;;;;;19.80;12.43;;;16.20;87.00;;;;;;4990196;28;20046;-64
2021/09/09 02:00:51;;;;;;;22.05;14.32;;;16.20;87.40;;;;;;4991786;28;20038;-65
2021/09/09 02:03:17;;;;;;;15.63;11.73;;;16.10;87.60;;;;;;5007409;28;20525;-64
2021/09/09 02:05:42;;;;;;;16.95;11.27;;;16.10;87.40;;;;;;4993691;28;20845;-64
2021/09/09 02:08:08;;;;;;;18.85;12.88;;;16.10;87.40;;;;;;4990871;28;20030;-64
2021/09/09 02:10:34;;;;;;;16.65;11.90;;;16.10;87.50;;;;;;4991464;28;20046;-64
2021/09/09 02:12:59;;;;;;;18.98;12.65;;;16.00;87.50;;;;;;4991286;28;20107;-64
2021/09/09 02:15:25;;;;;;;16.63;12.57;;;16.00;87.80;;;;;;4991931;28;20040;-64
2021/09/09 02:17:52;;;;;;;17.05;12.50;;;16.00;87.80;;;;;;4989244;28;20073;-64
2021/09/09 02:20:17;;;;;;;17.75;11.95;;;16.00;87.90;;;;;;4991518;28;20038;-64
2021/09/09 02:22:43;;;;;;;16.67;12.60;;;16.00;87.80;;;;;;4991331;28;20026;-64
2021/09/09 02:25:10;;;;;;;15.68;12.05;;;15.90;88.00;;;;;;4989813;28;20478;-64
2021/09/09 02:27:35;;;;;;;18.42;13.05;;;15.90;88.00;;;;;;4988644;28;20955;-64
2021/09/09 02:30:01;;;;;;;19.40;12.50;;;15.90;88.00;;;;;;4991308;28;20048;-64
2021/09/09 02:32:27;;;;;;;17.40;13.05;;;15.90;88.20;;;;;;4988596;28;20041;-64
2021/09/09 02:34:53;;;;;;;16.50;11.52;;;15.80;88.40;;;;;;4991579;28;20038;-64
2021/09/09 02:37:18;;;;;;;18.70;12.90;;;15.80;88.20;;;;;;4991094;28;20033;-64
2021/09/09 02:39:47;;;;;;;15.48;12.30;;;15.80;88.00;;;;;;4989646;28;20045;-65
2021/09/09 02:42:14;;;;;;;17.42;12.30;;;15.80;88.00;;;;;;4992231;28;20042;-64
2021/09/09 02:44:39;;;;;;;17.40;12.75;;;15.80;88.10;;;;;;5006528;28;20225;-65
2021/09/09 02:47:05;;;;;;;18.58;11.90;;;15.70;88.00;;;;;;4991494;28;20664;-64
2021/09/09 02:49:31;;;;;;;17.40;12.02;;;15.70;88.30;;;;;;4989580;28;20035;-64
2021/09/09 02:51:57;;;;;;;19.02;13.15;;;15.70;88.50;;;;;;4990683;28;20070;-64
2021/09/09 02:54:22;;;;;;;19.25;13.55;;;15.70;88.60;;;;;;4989691;28;20132;-64
2021/09/09 02:56:48;;;;;;;18.45;12.93;;;15.70;88.50;;;;;;4992615;28;20076;-64
2021/09/09 02:59:13;;;;;;;18.95;13.02;;;15.70;88.30;;;;;;4988808;28;20039;-64
2021/09/09 03:01:39;;;;;;;16.15;12.75;;;15.70;88.20;;;;;;4988586;28;20046;-65
2021/09/09 03:04:05;;;;;;;17.20;12.60;;;15.70;87.90;;;;;;4991193;28;20026;-64
2021/09/09 03:06:31;;;;;;;16.05;12.38;;;15.70;88.10;;;;;;4990979;28;20576;-64
2021/09/09 03:08:57;;;;;;;15.98;12.35;;;15.60;88.00;;;;;;4991248;28;20038;-64
2021/09/09 03:11:23;;;;;;;18.05;13.05;;;15.60;87.80;;;;;;4988266;28;20041;-64
2021/09/09 03:13:49;;;;;;;21.15;13.40;;;15.60;88.00;;;;;;4990157;28;20088;-64
2021/09/09 03:16:15;;;;;;;16.92;12.85;;;15.60;88.10;;;;;;5004375;28;20045;-64
2021/09/09 03:18:41;;;;;;;21.33;13.05;;;15.50;88.00;;;;;;4990524;28;20033;-64
2021/09/09 03:21:06;;;;;;;17.90;12.40;;;15.50;88.00;;;;;;4989394;28;20078;-64
2021/09/09 03:23:32;;;;;;;17.10;11.80;;;15.50;88.10;;;;;;4992414;28;20041;-64
2021/09/09 03:25:58;;;;;;;16.85;12.23;;;15.50;87.90;;;;;;4988094;28;20038;-64
2021/09/09 03:28:23;;;;;;;20.83;12.35;;;15.40;87.90;;;;;;4988512;28;20037;-64
2021/09/09 03:30:49;;;;;;;17.45;13.05;;;15.40;88.00;;;;;;4991521;28;20065;-64
2021/09/09 03:33:15;;;;;;;15.30;11.88;;;15.40;88.10;;;;;;4993965;28;20030;-64
2021/09/09 03:35:40;;;;;;;20.70;12.52;;;15.40;88.20;;;;;;4993924;28;20120;-64
2021/09/09 03:38:06;;;;;;;19.13;12.43;;;15.40;88.20;;;;;;4990642;28;20030;-67
2021/09/09 03:40:32;;;;;;;20.55;14.05;;;15.30;88.20;;;;;;4991422;28;20045;-64
2021/09/09 03:42:57;;;;;;;21.02;14.07;;;15.30;88.40;;;;;;4988949;28;20191;-63
2021/09/09 03:45:23;;;;;;;26.40;13.93;;;15.30;88.40;;;;;;4992326;28;20030;-64
2021/09/09 03:47:49;;;;;;;17.50;12.95;;;15.30;88.50;;;;;;4990856;28;20026;-64
2021/09/09 03:50:14;;;;;;;18.80;13.65;;;15.20;88.70;;;;;;4995785;28;20109;-64
2021/09/09 03:52:40;;;;;;;18.92;12.63;;;15.20;88.70;;;;;;4991285;28;20031;-65
2021/09/09 03:55:07;;;;;;;20.15;13.18;;;15.20;88.60;;;;;;4994665;28;20044;-64
2021/09/09 03:57:32;;;;;;;19.90;13.63;;;15.20;88.50;;;;;;5005403;28;20026;-64
2021/09/09 03:59:58;;;;;;;20.25;13.70;;;15.20;88.50;;;;;;4991533;28;20042;-64
2021/09/09 04:02:24;;;;;;;21.15;12.65;;;15.10;88.40;;;;;;4992015;28;20037;-64
2021/09/09 04:04:50;;;;;;;18.08;12.85;;;15.20;88.30;;;;;;4994458;28;20026;-64
2021/09/09 04:07:15;;;;;;;17.15;12.43;;;15.10;88.40;;;;;;4987495;28;20608;-64
2021/09/09 04:09:41;;;;;;;15.77;12.07;;;15.10;88.40;;;;;;4993464;28;20705;-65
2021/09/09 04:12:07;;;;;;;18.48;13.27;;;15.10;88.40;;;;;;4992523;28;20029;-63
2021/09/09 04:14:33;;;;;;;17.63;12.27;;;15.10;88.40;;;;;;4991593;28;20065;-64
2021/09/09 04:16:59;;;;;;;18.05;13.18;;;15.10;88.40;;;;;;4987944;28;20081;-64
2021/09/09 04:19:25;;;;;;;18.73;12.70;;;15.10;88.20;;;;;;4991093;28;20034;-64
2021/09/09 04:21:52;;;;;;;26.02;13.02;;;15.10;88.30;;;;;;4988611;28;20483;-64
2021/09/09 04:24:20;;;;;;;17.98;13.00;;;15.10;88.20;;;;;;4992211;28;20032;-64
2021/09/09 04:26:46;;;;;;;19.92;12.98;;;15.10;88.20;;;;;;4991314;28;20027;-65
2021/09/09 04:29:12;;;;;;;18.58;12.35;;;15.00;88.30;;;;;;4993790;28;20402;-64
2021/09/09 04:31:38;;;;;;;16.35;12.25;;;15.00;88.50;;;;;;4992575;28;20037;-64
2021/09/09 04:34:04;;;;;;;17.02;12.40;;;14.90;88.50;;;;;;4994518;28;20033;-64
2021/09/09 04:36:30;;;;;;;21.13;13.23;;;14.90;88.80;;;;;;4992874;28;20052;-64
2021/09/09 04:38:56;;;;;;;18.27;12.55;;;14.90;88.80;;;;;;4992521;28;20034;-64
2021/09/09 04:41:22;;;;;;;15.85;11.45;;;14.80;88.80;;;;;;4993193;28;20104;-64
2021/09/09 04:43:47;;;;;;;16.90;12.50;;;14.80;88.70;;;;;;4994438;28;20489;-67
2021/09/09 04:46:13;;;;;;;17.20;12.50;;;14.80;88.90;;;;;;4992289;28;20641;-64
2021/09/09 04:48:39;;;;;;;17.77;11.90;;;14.80;88.80;;;;;;4991805;28;20034;-64
2021/09/09 04:51:05;;;;;;;16.10;12.30;;;14.80;88.90;;;;;;4994959;28;20045;-64
2021/09/09 04:53:30;;;;;;;17.95;12.27;;;14.80;88.90;;;;;;4993024;28;20124;-64
2021/09/09 04:55:56;;;;;;;16.73;12.32;;;14.80;89.00;;;;;;5007093;28;20038;-64
2021/09/09 04:58:22;;;;;;;17.20;12.45;;;14.70;88.90;;;;;;4994585;28;20454;-64
2021/09/09 05:00:48;;;;;;;18.38;12.25;;;14.70;89.00;;;;;;4990664;28;20128;-63
2021/09/09 05:03:14;;;;;;;16.00;11.82;;;14.70;88.70;;;;;;4990369;28;20037;-64
2021/09/09 05:05:40;;;;;;;20.00;13.25;;;14.70;88.80;;;;;;4990847;28;20532;-63
2021/09/09 05:08:06;;;;;;;22.00;13.52;;;14.70;89.00;;;;;;4993040;28;20030;-63
2021/09/09 05:10:31;;;;;;;15.52;11.90;;;14.70;89.10;;;;;;4995374;28;20034;-63
2021/09/09 05:12:57;;;;;;;20.13;12.02;;;14.70;89.00;;;;;;4989250;28;20226;-64
2021/09/09 05:15:24;;;;;;;16.83;12.27;;;14.70;89.10;;;;;;4996135;28;20034;-64
2021/09/09 05:17:50;;;;;;;16.73;12.45;;;14.70;89.10;;;;;;4998100;28;20439;-63
2021/09/09 05:20:16;;;;;;;20.95;12.70;;;14.80;89.00;;;;;;4995940;28;20038;-64
2021/09/09 05:22:42;;;;;;;19.83;12.65;;;14.80;89.20;;;;;;5004645;28;20443;-64
2021/09/09 05:25:08;;;;;;;20.85;13.65;;;14.80;89.10;;;;;;4996368;28;20038;-64
2021/09/09 05:27:34;;;;;;;16.77;11.80;;;14.80;89.10;;;;;;4986512;28;20037;-64
2021/09/09 05:30:00;;;;;;;17.50;12.32;;;14.80;89.00;;;;;;4988959;28;20038;-64
2021/09/09 05:32:26;;;;;;;16.08;11.95;;;14.90;89.10;;;;;;4992330;28;20045;-63
2021/09/09 05:34:51;;;;;;;16.25;12.20;;;14.90;89.10;;;;;;4992941;28;20065;-63
2021/09/09 05:37:17;;;;;;;18.80;12.60;;;15.00;89.00;;;;;;4991286;28;20028;-64
2021/09/09 05:39:43;;;;;;;18.10;12.43;;;15.00;89.10;;;;;;4988770;28;20046;-64
2021/09/09 05:42:09;;;;;;;19.33;12.57;;;15.00;89.30;;;;;;4985880;28;20034;-63
2021/09/09 05:44:36;;;;;;;18.02;12.25;;;15.00;89.30;;;;;;4992190;28;20033;-64
2021/09/09 05:47:02;;;;;;;17.48;12.48;;;15.10;88.90;;;;;;4986995;28;20529;-64
2021/09/09 05:49:28;;;;;;;16.15;12.23;;;15.10;89.00;;;;;;4989368;28;20095;-74
2021/09/09 05:51:53;;;;;;;15.80;11.55;;;15.20;89.30;;;;;;4989234;28;20034;-64
2021/09/09 05:54:19;;;;;;;19.35;11.73;;;15.20;89.40;;;;;;4989391;28;20034;-64
2021/09/09 05:56:44;;;;;;;16.58;11.13;;;15.30;90.10;;;;;;4989671;28;20088;-66
2021/09/09 05:59:10;;;;;;;14.75;11.05;;;15.30;89.30;;;;;;4989045;28;20034;-64
2021/09/09 06:01:36;;;;;;;17.35;11.20;;;15.40;89.30;;;;;;4989805;28;20632;-64
2021/09/09 06:04:03;;;;;;;16.38;11.88;;;15.40;89.00;;;;;;4990898;28;20490;-64
2021/09/09 06:06:30;;;;;;;18.80;11.93;;;15.50;88.70;;;;;;4985180;28;20034;-64
2021/09/09 06:08:55;;;;;;;15.40;10.77;;;15.60;88.20;;;;;;4994304;28;20022;-64
2021/09/09 06:11:21;;;;;;;15.13;11.27;;;15.70;88.10;;;;;;5002624;28;20088;-64
2021/09/09 06:13:47;;;;;;;15.57;10.15;;;15.70;88.00;;;;;;5011751;28;20049;-64
2021/09/09 06:16:12;;;;;;;18.02;11.18;;;15.90;88.00;;;;;;5005626;28;20672;-64
2021/09/09 06:18:38;;;;;;;15.38;10.27;;;15.90;87.70;;;;;;5009433;28;20382;-64
2021/09/09 06:21:04;;;;;;;17.45;10.88;;;16.00;87.30;;;;;;5010601;28;20091;-66
2021/09/09 06:23:32;;;;;;;16.67;10.63;;;16.10;87.10;;;;;;5007726;28;20037;-64
2021/09/09 06:25:57;;;;;;;14.50;10.30;;;16.10;86.60;;;;;;5012051;28;20065;-63
2021/09/09 06:28:23;;;;;;;14.90;10.02;;;16.20;86.90;;;;;;5009480;28;20060;-64
2021/09/09 06:30:49;;;;;;;13.88;10.32;;;16.20;87.10;;;;;;5013062;28;20107;-70
2021/09/09 06:33:14;;;;;;;15.00;10.48;;;16.30;87.20;;;;;;5012420;28;20112;-64
2021/09/09 06:35:40;;;;;;;13.43;10.10;;;16.30;86.90;;;;;;5008478;28;20029;-66
2021/09/09 06:38:05;;;;;;;16.50;10.73;;;16.40;86.70;;;;;;5011924;28;20033;-64
2021/09/09 06:40:31;;;;;;;16.08;10.20;;;16.50;86.30;;;;;;5007810;28;20038;-64
2021/09/09 06:42:57;;;;;;;15.82;10.13;;;16.70;85.80;;;;;;5008227;28;20137;-67
2021/09/09 06:45:23;;;;;;;11.98;9.40;;;17.00;84.40;;;;;;5012545;28;20030;-67
2021/09/09 06:47:48;;;;;;;17.30;9.77;;;17.20;83.70;;;;;;5007920;28;20108;-67
2021/09/09 06:50:14;;;;;;;12.70;9.50;;;17.20;83.90;;;;;;5009554;28;20053;-66
2021/09/09 06:52:40;;;;;;;17.30;10.27;;;17.20;83.70;;;;;;5015709;28;20107;-66
2021/09/09 06:55:06;;;;;;;12.23;9.23;;;17.30;83.20;;;;;;5009971;28;20529;-66
2021/09/09 06:57:32;;;;;;;10.52;8.57;;;17.40;82.10;;;;;;5007381;28;20036;-66
2021/09/09 06:59:58;;;;;;;11.80;8.65;;;17.50;82.00;;;;;;5010966;28;20461;-66
2021/09/09 07:02:24;;;;;;;12.90;8.80;;;17.60;82.10;;;;;;5006839;28;20450;-68
2021/09/09 07:04:49;;;;;;;11.88;8.50;;;17.60;81.50;;;;;;5013570;28;20068;-67
2021/09/09 07:07:15;;;;;;;10.80;8.48;;;17.70;82.00;;;;;;5016690;28;20057;-66
2021/09/09 07:09:41;;;;;;;11.70;8.38;;;17.80;80.00;;;;;;5016289;28;20445;-66
2021/09/09 07:12:06;;;;;;;13.30;9.18;;;18.00;77.90;;;;;;5013904;28;20485;-66
2021/09/09 07:14:32;;;;;;;11.50;7.90;;;18.20;76.90;;;;;;5015459;28;20095;-66
2021/09/09 07:16:58;;;;;;;9.95;8.25;;;18.40;76.20;;;;;;5012321;28;20029;-66
2021/09/09 07:19:23;;;;;;;11.82;8.40;;;18.50;76.10;;;;;;5012517;28;20746;-65
2021/09/09 07:21:52;;;;;;;10.13;7.40;;;18.60;74.10;;;;;;5013142;28;20034;-66
2021/09/09 07:24:19;;;;;;;9.90;6.70;;;18.80;73.50;;;;;;5014013;28;20034;-65
2021/09/09 07:26:46;;;;;;;11.18;7.63;;;18.90;73.20;;;;;;5018757;28;20025;-65
2021/09/09 07:29:13;;;;;;;10.55;7.72;;;19.00;73.10;;;;;;5009306;28;20049;-66
2021/09/09 07:31:40;;;;;;;9.02;7.18;;;19.00;72.80;;;;;;5010905;28;20029;-65
2021/09/09 07:34:06;;;;;;;12.02;6.60;;;19.00;71.10;;;;;;5013284;28;20046;-65
2021/09/09 07:36:32;;;;;;;11.45;7.05;;;19.00;70.50;;;;;;5012118;28;20060;-66
2021/09/09 07:38:57;;;;;;;11.25;6.85;;;19.00;71.00;;;;;;5021242;28;20037;-65
2021/09/09 07:41:23;;;;;;;7.97;6.50;;;19.00;70.60;;;;;;5011708;28;20057;-65
2021/09/09 07:43:49;;;;;;;8.55;6.80;;;19.20;71.10;;;;;;5014532;28;20375;-64
2021/09/09 07:46:14;;;;;;;8.75;6.85;;;19.30;71.10;;;;;;5014064;28;20034;-63
2021/09/09 07:48:40;;;;;;;10.63;7.40;;;19.40;71.60;;;;;;5012130;28;20121;-64
2021/09/09 07:51:06;;;;;;;14.57;7.07;;;19.40;69.00;;;;;;5016065;28;20045;-63
2021/09/09 07:53:31;;;;;;;12.15;7.30;;;19.50;69.60;;;;;;5013457;28;20041;-64
2021/09/09 07:55:57;;;;;;;8.75;6.97;;;19.60;69.80;;;;;;5015045;28;20049;-64
2021/09/09 07:58:23;;;;;;;9.93;7.80;;;19.60;69.00;;;;;;5015954;28;20025;-67
2021/09/09 08:00:48;;;;;;;8.82;6.63;;;19.60;69.50;;;;;;5014065;28;20477;-68
2021/09/09 08:03:14;;;;;;;13.25;7.22;;;19.60;69.30;;;;;;5025948;28;20029;-64
2021/09/09 08:05:40;;;;;;;11.85;8.13;;;19.70;68.50;;;;;;5014204;28;20040;-64
2021/09/09 08:08:06;;;;;;;11.93;6.97;;;19.80;68.70;;;;;;5012303;28;20030;-64
2021/09/09 08:10:32;;;;;;;13.32;7.50;;;19.90;68.50;;;;;;5011425;28;20033;-64
2021/09/09 08:12:58;;;;;;;9.88;6.65;;;19.90;67.40;;;;;;5010249;28;20044;-64
2021/09/09 08:15:24;;;;;;;10.68;7.13;;;20.00;67.60;;;;;;5012066;28;20076;-64
2021/09/09 08:17:50;;;;;;;9.40;6.75;;;20.20;67.70;;;;;;5013179;28;20037;-64
2021/09/09 08:20:16;;;;;;;12.88;7.00;;;20.30;67.70;;;;;;5013395;28;20759;-64
2021/09/09 08:22:42;;;;;;;9.80;6.95;;;20.30;67.20;;;;;;5013125;28;20038;-64
2021/09/09 08:25:09;;;;;;;11.60;6.70;;;20.30;66.90;;;;;;5013914;28;20029;-63
2021/09/09 08:27:36;;;;;;;10.20;6.68;;;20.60;66.80;;;;;;5011978;28;20133;-63
2021/09/09 08:30:03;;;;;;;8.27;6.30;;;20.90;65.70;;;;;;5011770;28;20069;-65
2021/09/09 08:32:29;;;;;;;10.65;6.65;;;21.00;65.50;;;;;;5011140;28;20037;-63
2021/09/09 08:34:56;;;;;;;10.43;6.68;;;20.90;64.30;;;;;;5013260;28;20034;-63
2021/09/09 08:37:23;;;;;;;9.98;7.40;;;20.90;66.50;;;;;;5009913;28;20030;-64
2021/09/09 08:39:49;;;;;;;10.88;7.90;;;20.90;65.40;;;;;;5012098;28;20090;-64
2021/09/09 08:42:14;;;;;;;11.15;7.53;;;20.80;65.80;;;;;;5010720;28;20398;-70
2021/09/09 08:44:41;;;;;;;10.40;6.80;;;20.90;66.20;;;;;;5012111;28;20033;-70
2021/09/09 08:47:09;;;;;;;9.05;6.90;;;21.00;65.50;;;;;;5008793;28;20033;-71
2021/09/09 08:49:35;;;;;;;11.48;6.75;;;21.10;65.00;;;;;;5013553;28;20029;-70
2021/09/09 08:52:03;;;;;;;14.88;6.93;;;21.20;64.20;;;;;;5010066;28;20095;-71
2021/09/09 08:54:29;;;;;;;11.73;5.97;;;21.40;62.90;;;;;;5011717;28;20383;-70
2021/09/09 08:56:55;;;;;;;11.30;7.28;;;21.40;63.60;;;;;;5011491;28;20028;-70
2021/09/09 08:59:21;;;;;;;8.95;6.63;;;21.70;63.10;;;;;;5012915;28;20095;-70
2021/09/09 09:02:07;;;;;;;9.52;6.15;;;22.30;61.30;;;;;;5019829;28;20923;-70
2021/09/09 09:04:34;;;;;;;10.98;6.72;;;22.80;58.20;;;;;;5013398;28;20706;-72
2021/09/09 09:07:00;;;;;;;11.43;7.15;;;22.90;59.20;;;;;;5010451;28;20118;-71
2021/09/09 09:09:28;;;;;;;8.35;5.55;;;22.90;59.70;;;;;;5010865;28;20136;-72
2021/09/09 09:11:54;;;;;;;11.73;6.15;;;22.70;58.80;;;;;;5016679;28;20037;-72
2021/09/09 09:14:25;;;;;;;7.75;6.50;;;22.50;59.50;;;;;;5008233;28;20041;-72
2021/09/09 09:17:00;;;;;;;9.35;7.50;;;22.50;59.90;;;;;;5010356;28;20042;-71
2021/09/09 09:19:36;;;;;;;10.40;7.50;;;22.40;60.30;;;;;;5013729;28;20104;-72
2021/09/09 09:22:09;;;;;;;7.63;6.40;;;22.40;61.30;;;;;;5011435;28;20108;-71
2021/09/09 09:24:49;;;;;;;7.72;6.28;;;22.50;60.40;;;;;;5010892;28;20051;-71
2021/09/09 09:27:16;;;;;;;10.65;6.75;;;22.50;60.00;;;;;;5010520;28;20071;-64
2021/09/09 09:29:58;;;;;;;9.43;6.88;;;22.60;60.20;;;;;;5018420;28;20125;-65
2021/09/09 09:32:24;;;;;;;9.85;6.75;;;22.60;60.70;;;;;;5012317;28;20037;-65
2021/09/09 09:34:50;;;;;;;9.57;6.68;;;22.60;61.40;;;;;;5012732;28;20141;-65
2021/09/09 09:37:21;;;;;;;8.57;6.15;;;22.60;61.60;;;;;;5011026;28;20040;-65
2021/09/09 09:39:47;;;;;;;8.25;6.72;;;22.60;60.80;;;;;;5017574;28;20393;-65
2021/09/09 09:42:13;;;;;;;10.35;6.65;;;22.70;62.60;;;;;;5016801;28;20037;-65
2021/09/09 09:44:41;;;;;;;9.32;6.88;;;22.80;60.60;;;;;;5012592;28;20036;-65
2021/09/09 09:47:20;;;;;;;14.30;6.70;;;22.80;62.10;;;;;;5011367;28;20100;-64
2021/09/09 09:49:53;;;;;;;13.77;6.72;;;22.90;61.40;;;;;;5011315;28;20041;-63
2021/09/09 09:52:23;;;;;;;13.95;9.95;;;23.10;62.40;;;;;;5008455;28;20033;-65
2021/09/09 09:55:00;;;;;;;9.98;6.95;;;23.20;61.10;;;;;;5007017;28;20067;-65
2021/09/09 09:57:29;;;;;;;11.73;7.72;;;23.40;60.60;;;;;;5005955;28;20041;-75
2021/09/09 09:59:56;;;;;;;9.80;6.85;;;23.90;59.00;;;;;;5006576;28;20500;-71
2021/09/09 10:02:23;;;;;;;10.95;6.60;;;24.00;57.70;;;;;;5012770;28;20038;-73
2021/09/09 10:04:50;;;;;;;13.48;7.30;;;24.00;57.50;;;;;;5010720;28;20059;-72
2021/09/09 10:07:17;;;;;;;9.32;7.47;;;24.30;57.40;;;;;;5012004;28;20044;-71
2021/09/09 10:09:44;;;;;;;9.73;7.40;;;24.70;56.60;;;;;;5012228;28;20034;-72
2021/09/09 10:12:11;;;;;;;8.82;6.65;;;25.10;56.00;;;;;;5009667;28;20481;-72
2021/09/09 10:14:47;;;;;;;9.40;7.07;;;25.40;54.20;;;;;;5007073;28;20037;-71
2021/09/09 10:17:16;;;;;;;;;;;25.60;53.20;;;;;;5012816;28;20033;-72
2021/09/09 10:19:42;;;;;;;10.80;7.07;;;25.30;54.40;;;;;;5008163;28;19918;-72
2021/09/09 10:22:07;;;;;;;11.18;7.60;;;25.10;55.90;;;;;;5011996;28;20478;-71
2021/09/09 10:24:36;;;;;;;10.18;7.05;;;24.80;56.30;;;;;;5008551;28;20121;-71
2021/09/09 10:27:14;;;;;;;11.80;6.93;;;24.60;56.40;;;;;;5009687;28;20613;-72
2021/09/09 10:29:43;;;;;;;10.52;6.53;;;24.40;56.80;;;;;;5011914;28;20060;-73
2021/09/09 10:32:29;;;;;;;15.65;8.15;;;24.20;57.00;;;;;;5009969;28;20560;-72
2021/09/09 10:35:17;;;;;;;9.75;7.65;;;24.00;57.50;;;;;;5006074;28;20034;-72
2021/09/09 10:37:44;;;;;;;10.73;7.10;;;23.90;57.90;;;;;;5010034;28;20041;-72
2021/09/09 10:40:34;;;;;;;10.15;7.53;;;24.00;58.00;;;;;;5006956;28;20138;-71
2021/09/09 10:43:12;;;;;;;8.15;6.47;;;23.90;58.60;;;;;;5008230;28;20790;-71
2021/09/09 10:45:41;;;;;;;10.82;7.13;;;24.00;57.90;;;;;;5007154;28;20026;-72
2021/09/09 10:48:19;;;;;;;12.95;6.68;;;24.10;57.90;;;;;;5010418;28;20033;-73
2021/09/09 10:51:08;;;;;;;7.93;6.20;;;24.10;57.10;;;;;;5008527;28;20042;-71
2021/09/09 10:53:39;;;;;;;6.97;5.93;;;24.20;56.50;;;;;;5014930;28;20046;-71
2021/09/09 10:56:14;;;;;;;10.68;5.93;;;24.30;57.40;;;;;;5009363;28;20069;-71
2021/09/09 10:58:40;;;;;;;9.23;6.43;;;24.30;57.00;;;;;;5008955;28;20069;-72
2021/09/09 11:01:08;;;;;;;15.90;8.80;;;24.40;57.20;;;;;;5010445;28;20122;-71
2021/09/09 11:03:43;;;;;;;13.07;9.20;;;24.30;57.00;;;;;;5008982;28;20087;-71
2021/09/09 11:06:10;;;;;;;9.05;7.00;;;24.30;57.30;;;;;;5011520;28;20036;-72
2021/09/09 11:08:36;;;;;;;10.95;6.32;;;24.30;57.30;;;;;;5009611;28;20053;-71
2021/09/09 11:11:04;;;;;;;7.97;5.57;;;24.40;56.40;;;;;;5010019;28;20054;-71
2021/09/09 11:13:32;;;;;;;9.18;5.35;;;24.40;55.50;;;;;;5012869;28;20719;-71
2021/09/09 11:15:58;;;;;;;9.68;5.95;;;24.40;55.50;;;;;;5012348;28;20052;-71
2021/09/09 11:18:28;;;;;;;9.85;6.40;;;24.50;55.70;;;;;;5011515;28;20562;-72
2021/09/09 11:21:01;;;;;;;7.03;5.75;;;24.70;54.20;;;;;;5013046;28;20038;-71
2021/09/09 11:23:27;;;;;;;9.10;5.50;;;24.70;53.70;;;;;;5007809;28;20121;-72
2021/09/09 11:25:52;;;;;;;7.85;4.82;;;24.80;53.70;;;;;;5010529;28;20452;-71
2021/09/09 11:28:19;;;;;;;9.82;5.68;;;24.80;54.30;;;;;;5007310;28;20030;-72
2021/09/09 11:31:09;;;;;;;7.13;6.05;;;24.90;54.30;;;;;;5003800;28;20045;-72
2021/09/09 11:33:57;;;;;;;8.95;5.07;;;25.00;54.00;;;;;;5008883;28;20041;-72
2021/09/09 11:36:28;;;;;;;9.80;6.25;;;25.00;52.80;;;;;;5003820;28;20073;-71
2021/09/09 11:38:56;;;;;;;11.73;5.82;;;25.00;53.70;;;;;;5009473;28;20115;-71
2021/09/09 11:41:23;;;;;;;8.57;5.53;;;25.00;53.30;;;;;;5007934;28;20069;-71
2021/09/09 11:43:51;;;;;;;8.35;5.75;;;25.10;53.10;;;;;;5011001;28;20040;-66
2021/09/09 11:46:30;;;;;;;6.25;5.10;;;25.20;53.80;;;;;;5006326;28;20057;-72
2021/09/09 11:49:01;;;;;;;7.30;5.70;;;25.10;54.10;;;;;;5013069;28;20041;-65
2021/09/09 11:51:40;;;;;;;8.70;5.18;;;25.20;54.40;;;;;;5013689;28;20059;-64
2021/09/09 11:54:25;;;;;;;7.03;5.05;;;25.30;54.30;;;;;;5011658;28;20044;-64
2021/09/09 11:57:01;;;;;;;5.78;5.18;;;25.40;55.50;;;;;;5007937;28;20042;-65
2021/09/09 11:59:27;;;;;;;8.02;5.28;;;25.50;53.60;;;;;;5007007;28;20080;-64
2021/09/09 12:02:06;;;;;;;8.80;4.68;;;25.50;54.80;;;;;;5013754;28;20060;-64
2021/09/09 12:04:37;;;;;;;10.55;5.43;;;25.50;51.50;;;;;;5009846;28;20401;-65
2021/09/09 12:07:04;;;;;;;7.13;5.82;;;25.50;53.80;;;;;;5011428;28;20040;-64
2021/09/09 12:09:33;;;;;;;7.40;5.70;;;25.60;54.70;;;;;;5012778;28;20030;-65
2021/09/09 12:12:17;;;;;;;7.47;5.78;;;25.60;54.60;;;;;;5010923;28;20064;-65
2021/09/09 12:14:42;;;;;;;6.72;5.20;;;25.70;52.70;;;;;;5009626;28;20038;-65
2021/09/09 12:17:15;;;;;;;8.85;5.20;;;25.80;51.90;;;;;;5012580;28;20044;-65
2021/09/09 12:19:56;;;;;;;7.53;4.93;;;25.90;51.80;;;;;;5012210;28;20044;-64
2021/09/09 12:22:40;;;;;;;9.85;5.53;;;25.90;52.60;;;;;;5010994;28;20034;-65
2021/09/09 12:25:20;;;;;;;14.15;5.63;;;26.00;51.30;;;;;;5009834;28;20048;-65
2021/09/09 12:28:13;;;;;;;5.80;4.88;;;26.10;50.20;;;;;;5013879;28;20064;-65
2021/09/09 12:30:49;;;;;;;7.22;4.78;;;26.20;51.40;;;;;;5011432;28;20042;-65
2021/09/09 12:33:19;;;;;;;;;;;26.20;50.90;;;;;;5019694;28;20126;-64
2021/09/09 12:36:08;;;;;;;8.07;5.57;;;26.20;50.50;;;;;;5024402;28;20709;-64